createdAt,value
2023-08-25T00:00:38.749Z,13.05
2023-08-25T00:03:05.572Z,11.77
2023-08-25T00:05:40.093Z,11.60
2023-08-25T00:08:06.989Z,12.95
2023-08-25T00:10:36.612Z,11.75
2023-08-25T00:13:03.213Z,12.20
2023-08-25T00:15:29.835Z,12.85
2023-08-25T00:17:56.676Z,13.15
2023-08-25T00:20:23.884Z,12.35
2023-08-25T00:22:50.543Z,11.27
2023-08-25T00:25:16.848Z,12.98
2023-08-25T00:27:43.267Z,11.23
2023-08-25T00:30:11.676Z,12.27
2023-08-25T00:32:39.041Z,12.43
2023-08-25T00:35:06.247Z,12.30
2023-08-25T00:37:32.697Z,11.55
2023-08-25T00:40:00.529Z,10.70
2023-08-25T00:42:26.924Z,12.43
2023-08-25T00:44:53.320Z,11.27
2023-08-25T00:47:20.320Z,10.82
2023-08-25T00:49:47.790Z,13.30
2023-08-25T00:52:15.069Z,12.75
2023-08-25T00:54:41.651Z,13.82
2023-08-25T00:57:08.572Z,12.63
2023-08-25T00:59:35.373Z,12.95
2023-08-25T01:02:04.321Z,12.63
2023-08-25T01:04:32.420Z,12.65
2023-08-25T01:06:58.824Z,12.02
2023-08-25T01:09:26.194Z,11.50
2023-08-25T01:11:52.860Z,11.20
2023-08-25T01:14:35.932Z,12.25
2023-08-25T01:17:08.356Z,12.35
2023-08-25T01:19:55.529Z,11.63
2023-08-25T01:22:31.070Z,12.20
2023-08-25T01:25:04.145Z,12.38
2023-08-25T01:27:30.858Z,13.10
2023-08-25T01:29:57.200Z,12.27
2023-08-25T01:32:23.608Z,11.80
2023-08-25T01:34:49.928Z,11.55
2023-08-25T01:37:20.434Z,11.23
2023-08-25T01:39:47.874Z,11.27
2023-08-25T01:42:15.549Z,10.02
2023-08-25T01:44:43.026Z,11.93
2023-08-25T01:47:10.401Z,11.05
2023-08-25T01:49:38.385Z,11.55
2023-08-25T01:52:05.001Z,11.70
2023-08-25T01:54:32.312Z,11.43
2023-08-25T01:56:58.689Z,11.85
2023-08-25T01:59:25.108Z,11.13
2023-08-25T02:01:51.497Z,11.68
2023-08-25T02:04:17.885Z,10.38
2023-08-25T02:06:45.796Z,11.90
2023-08-25T02:09:15.325Z,11.40
2023-08-25T02:11:41.779Z,11.45
2023-08-25T02:14:18.055Z,11.32
2023-08-25T02:16:44.487Z,12.45
2023-08-25T02:19:13.069Z,11.32
2023-08-25T02:21:39.484Z,11.50
2023-08-25T02:24:06.055Z,11.10
2023-08-25T02:26:33.629Z,11.07
2023-08-25T02:28:59.968Z,11.13
2023-08-25T02:31:26.429Z,12.25
2023-08-25T02:33:52.937Z,10.38
2023-08-25T02:36:19.287Z,10.38
2023-08-25T02:38:45.643Z,11.23
2023-08-25T02:41:12.487Z,10.85
2023-08-25T02:43:38.888Z,10.90
2023-08-25T02:46:05.675Z,11.30
2023-08-25T02:48:32.100Z,11.98
2023-08-25T02:50:58.449Z,11.90
2023-08-25T02:53:24.944Z,11.18
2023-08-25T02:55:51.412Z,11.90
2023-08-25T02:58:17.732Z,12.05
2023-08-25T03:00:45.593Z,11.35
2023-08-25T03:03:12.061Z,11.23
2023-08-25T03:05:41.578Z,11.27
2023-08-25T03:08:12.866Z,10.68
2023-08-25T03:10:39.736Z,10.15
2023-08-25T03:13:06.168Z,9.48
2023-08-25T03:15:32.983Z,10.10
2023-08-25T03:17:59.356Z,10.00
2023-08-25T03:20:25.765Z,10.25
2023-08-25T03:22:53.406Z,11.57
2023-08-25T03:25:19.789Z,10.88
2023-08-25T03:27:46.211Z,10.90
2023-08-25T03:30:12.917Z,11.02
2023-08-25T03:32:39.322Z,10.02
2023-08-25T03:35:05.928Z,10.45
2023-08-25T03:37:32.343Z,10.80
2023-08-25T03:40:03.650Z,10.82
2023-08-25T03:42:30.199Z,10.35
2023-08-25T03:44:56.851Z,10.43
2023-08-25T03:47:23.276Z,11.18
2023-08-25T03:49:51.180Z,10.88
2023-08-25T03:52:17.553Z,10.20
2023-08-25T03:54:43.973Z,10.13
2023-08-25T03:57:11.318Z,10.50
2023-08-25T03:59:37.648Z,10.05
2023-08-25T04:02:05.037Z,10.07
2023-08-25T04:04:34.971Z,10.00
2023-08-25T04:07:01.405Z,10.52
2023-08-25T04:09:27.792Z,9.75
2023-08-25T04:11:57.623Z,9.13
2023-08-25T04:14:24.402Z,8.65
2023-08-25T04:16:50.776Z,8.52
2023-08-25T04:19:18.081Z,9.05
2023-08-25T04:21:45.120Z,9.40
2023-08-25T04:24:12.461Z,10.73
2023-08-25T04:26:39.674Z,10.75
2023-08-25T04:29:07.470Z,9.90
2023-08-25T04:31:33.807Z,11.70
2023-08-25T04:34:00.865Z,10.65
2023-08-25T04:36:27.261Z,12.90
2023-08-25T04:38:53.656Z,12.40
2023-08-25T04:41:20.406Z,12.27
2023-08-25T04:43:47.125Z,9.50
2023-08-25T04:46:14.134Z,10.18
2023-08-25T04:48:44.246Z,17.60
2023-08-25T04:51:10.636Z,22.13
2023-08-25T04:53:37.008Z,17.77
2023-08-25T04:56:03.895Z,18.70
2023-08-25T04:58:31.293Z,15.18
2023-08-25T05:00:57.699Z,12.93
2023-08-25T05:03:24.367Z,13.23
2023-08-25T05:05:51.622Z,13.38
2023-08-25T05:08:20.095Z,14.85
2023-08-25T05:10:46.412Z,15.15
2023-08-25T05:13:14.318Z,14.27
2023-08-25T05:15:40.674Z,17.73
2023-08-25T05:18:08.677Z,20.50
2023-08-25T05:20:35.091Z,23.45
2023-08-25T05:23:01.563Z,22.00
2023-08-25T05:25:29.228Z,25.02
2023-08-25T05:27:56.076Z,22.52
2023-08-25T05:30:22.866Z,23.73
2023-08-25T05:32:51.645Z,25.15
2023-08-25T05:35:29.401Z,25.00
2023-08-25T05:37:57.358Z,32.72
2023-08-25T05:40:24.020Z,34.45
2023-08-25T05:42:51.901Z,34.85
2023-08-25T05:45:18.289Z,35.10
2023-08-25T05:47:45.000Z,32.15
2023-08-25T05:50:11.414Z,23.95
2023-08-25T05:52:37.843Z,22.23
2023-08-25T05:55:04.376Z,25.83
2023-08-25T05:57:30.731Z,29.60
2023-08-25T05:59:57.055Z,31.65
2023-08-25T06:02:23.416Z,30.70
2023-08-25T06:04:49.765Z,28.75
2023-08-25T06:07:16.150Z,29.58
2023-08-25T06:09:42.595Z,26.10
2023-08-25T06:12:09.205Z,25.42
2023-08-25T06:14:36.355Z,24.30
2023-08-25T06:17:03.057Z,25.20
2023-08-25T06:19:29.512Z,22.58
2023-08-25T06:21:55.928Z,22.52
2023-08-25T06:24:22.284Z,23.15
2023-08-25T06:26:48.933Z,22.25
2023-08-25T06:29:15.271Z,22.50
2023-08-25T06:31:41.700Z,21.83
2023-08-25T06:34:08.110Z,21.42
2023-08-25T06:36:35.072Z,24.83
2023-08-25T06:39:01.611Z,21.85
2023-08-25T06:41:27.998Z,19.83
2023-08-25T06:43:58.124Z,21.80
2023-08-25T06:46:24.671Z,22.50
2023-08-25T06:48:51.455Z,21.80
2023-08-25T06:51:17.877Z,21.50
2023-08-25T06:53:44.358Z,21.55
2023-08-25T06:56:11.530Z,22.10
2023-08-25T06:58:38.008Z,20.40
2023-08-25T07:01:04.379Z,19.20
2023-08-25T07:03:32.251Z,19.50
2023-08-25T07:06:01.760Z,19.92
2023-08-25T07:08:28.123Z,18.98
2023-08-25T07:10:54.482Z,18.50
2023-08-25T07:13:21.176Z,18.95
2023-08-25T07:15:47.687Z,19.67
2023-08-25T07:18:14.140Z,19.40
2023-08-25T07:20:40.543Z,19.05
2023-08-25T07:23:06.899Z,19.52
2023-08-25T07:25:33.246Z,18.85
2023-08-25T07:27:59.578Z,16.92
2023-08-25T07:30:25.896Z,16.77
2023-08-25T07:32:52.669Z,18.70
2023-08-25T07:35:19.200Z,16.75
2023-08-25T07:37:45.646Z,16.80
2023-08-25T07:40:11.994Z,17.73
2023-08-25T07:42:38.346Z,17.45
2023-08-25T07:45:05.349Z,15.82
2023-08-25T07:47:31.733Z,14.40
2023-08-25T07:49:58.199Z,13.00
2023-08-25T07:52:24.569Z,11.40
2023-08-25T07:54:50.867Z,11.77
2023-08-25T07:57:17.662Z,11.10
2023-08-25T07:59:43.984Z,8.85
2023-08-25T08:02:10.363Z,8.05
2023-08-25T08:04:36.807Z,8.40
2023-08-25T08:07:03.152Z,7.50
2023-08-25T08:09:30.056Z,8.40
2023-08-25T08:11:56.542Z,7.75
2023-08-25T08:14:31.835Z,9.98
2023-08-25T08:17:06.404Z,6.65
2023-08-25T08:19:32.839Z,7.47
2023-08-25T08:21:59.186Z,7.03
2023-08-25T08:24:35.507Z,6.57
2023-08-25T08:27:11.819Z,6.35
2023-08-25T08:29:38.192Z,6.75
2023-08-25T08:32:06.763Z,6.30
2023-08-25T08:34:33.122Z,14.02
2023-08-25T08:36:59.427Z,11.48
2023-08-25T08:39:25.846Z,5.45
2023-08-25T08:41:53.187Z,5.20
2023-08-25T08:44:20.014Z,6.07
2023-08-25T08:46:49.971Z,4.80
2023-08-25T08:49:16.507Z,5.13
2023-08-25T08:51:43.308Z,5.70
2023-08-25T08:54:09.655Z,6.30
2023-08-25T08:56:36.151Z,16.95
2023-08-25T08:59:04.286Z,5.47
2023-08-25T09:01:31.794Z,6.60
2023-08-25T09:04:01.571Z,5.80
2023-08-25T09:06:32.974Z,5.95
2023-08-25T09:08:59.774Z,5.68
2023-08-25T09:11:26.133Z,6.28
2023-08-25T09:13:53.167Z,5.65
2023-08-25T09:16:19.526Z,5.13
2023-08-25T09:18:47.139Z,5.70
2023-08-25T09:21:17.829Z,5.28
2023-08-25T09:23:57.441Z,5.20
2023-08-25T09:26:24.048Z,5.10
2023-08-25T09:28:54.822Z,5.40
2023-08-25T09:31:25.281Z,5.07
2023-08-25T09:33:52.885Z,4.90
2023-08-25T09:36:19.807Z,5.10
2023-08-25T09:38:54.743Z,4.30
2023-08-25T09:41:29.853Z,4.68
2023-08-25T09:43:56.821Z,4.63
2023-08-25T09:46:29.122Z,4.85
2023-08-25T09:49:06.732Z,4.40
2023-08-25T09:51:43.175Z,3.80
2023-08-25T09:54:14.288Z,4.38
2023-08-25T09:56:41.367Z,4.18
2023-08-25T09:59:08.892Z,4.32
2023-08-25T10:01:36.074Z,4.32
2023-08-25T10:04:03.384Z,3.88
2023-08-25T10:06:33.436Z,4.25
2023-08-25T10:09:00.444Z,4.30
2023-08-25T10:11:28.235Z,3.92
2023-08-25T10:13:55.218Z,4.10
2023-08-25T10:16:23.508Z,4.13
2023-08-25T10:18:50.076Z,3.97
2023-08-25T10:21:19.002Z,3.20
2023-08-25T10:23:46.560Z,3.30
2023-08-25T10:26:13.218Z,3.25
2023-08-25T10:28:39.733Z,3.42
2023-08-25T10:31:06.226Z,3.47
2023-08-25T10:33:51.460Z,3.25
2023-08-25T10:36:19.282Z,3.63
2023-08-25T10:38:46.829Z,3.38
2023-08-25T10:41:15.209Z,3.08
2023-08-25T10:43:42.196Z,3.10
2023-08-25T10:46:08.943Z,3.08
2023-08-25T10:48:37.608Z,3.20
2023-08-25T10:51:09.961Z,3.00
2023-08-25T10:53:37.995Z,3.65
2023-08-25T10:56:16.585Z,3.00
2023-08-25T10:58:43.178Z,3.03
2023-08-25T11:01:09.639Z,3.03
2023-08-25T11:03:59.098Z,3.10
2023-08-25T11:06:41.303Z,2.90
2023-08-25T11:09:12.106Z,3.17
2023-08-25T11:11:38.651Z,2.88
2023-08-25T11:14:05.231Z,3.03
2023-08-25T11:16:31.709Z,2.78
2023-08-25T11:18:58.181Z,3.10
2023-08-25T11:21:25.517Z,2.90
2023-08-25T11:23:51.972Z,2.90
2023-08-25T11:26:18.928Z,2.70
2023-08-25T11:28:52.148Z,2.92
2023-08-25T11:31:22.713Z,2.75
2023-08-25T11:33:50.205Z,2.70
2023-08-25T11:36:19.638Z,2.63
2023-08-25T11:38:50.150Z,3.00
2023-08-25T11:41:17.157Z,2.97
2023-08-25T11:43:45.903Z,2.65
2023-08-25T11:46:13.091Z,2.90
2023-08-25T11:48:39.455Z,2.72
2023-08-25T11:51:06.004Z,2.97
2023-08-25T11:53:33.006Z,2.80
2023-08-25T11:56:03.620Z,3.25
2023-08-25T11:58:33.560Z,3.50
2023-08-25T12:01:01.099Z,3.13
2023-08-25T12:03:28.140Z,3.85
2023-08-25T12:05:55.004Z,3.25
2023-08-25T12:08:21.330Z,3.80
2023-08-25T12:10:47.747Z,3.95
2023-08-25T12:13:14.090Z,3.95
2023-08-25T12:15:42.040Z,4.25
2023-08-25T12:18:08.803Z,4.05
2023-08-25T12:20:35.202Z,4.93
2023-08-25T12:23:02.957Z,4.07
2023-08-25T12:25:31.263Z,3.90
2023-08-25T12:27:58.719Z,4.15
2023-08-25T12:30:26.609Z,4.22
2023-08-25T12:32:52.970Z,4.00
2023-08-25T12:35:20.411Z,4.20
2023-08-25T12:37:46.858Z,3.80
2023-08-25T12:40:13.238Z,3.90
2023-08-25T12:42:39.616Z,3.80
2023-08-25T12:45:06.352Z,3.88
2023-08-25T12:47:32.753Z,3.90
2023-08-25T12:49:59.122Z,4.60
2023-08-25T12:52:27.867Z,4.13
2023-08-25T12:54:56.715Z,3.88
2023-08-25T12:57:31.741Z,3.85
2023-08-25T13:00:00.043Z,3.78
2023-08-25T13:02:26.354Z,3.85
2023-08-25T13:04:52.986Z,3.83
2023-08-25T13:07:21.186Z,4.03
2023-08-25T13:09:47.861Z,3.80
2023-08-25T13:12:14.236Z,3.80
2023-08-25T13:14:40.628Z,4.03
2023-08-25T13:17:06.941Z,4.18
2023-08-25T13:19:33.356Z,3.95
2023-08-25T13:21:59.702Z,3.88
2023-08-25T13:24:26.113Z,4.00
2023-08-25T13:26:52.587Z,3.85
2023-08-25T13:29:18.942Z,4.15
2023-08-25T13:31:45.381Z,3.70
2023-08-25T13:34:11.754Z,3.85
2023-08-25T13:36:38.109Z,3.88
2023-08-25T13:39:04.486Z,4.70
2023-08-25T13:41:30.887Z,4.38
2023-08-25T13:43:57.189Z,4.18
2023-08-25T13:46:23.570Z,4.30
2023-08-25T13:48:50.311Z,4.32
2023-08-25T13:51:16.639Z,4.32
2023-08-25T13:53:43.978Z,4.00
2023-08-25T13:56:10.878Z,4.20
2023-08-25T13:58:38.803Z,4.53
2023-08-25T14:01:05.641Z,4.50
2023-08-25T14:03:33.456Z,4.55
2023-08-25T14:06:04.470Z,4.70
2023-08-25T14:08:35.505Z,4.15
2023-08-25T14:11:01.872Z,4.40
2023-08-25T14:13:28.279Z,4.80
2023-08-25T14:15:54.646Z,4.28
2023-08-25T14:18:22.384Z,4.63
2023-08-25T14:20:50.538Z,4.70
2023-08-25T14:23:16.838Z,4.70
2023-08-25T14:25:43.184Z,4.68
2023-08-25T14:28:09.506Z,4.88
2023-08-25T14:30:35.905Z,4.80
2023-08-25T14:33:02.278Z,4.57
2023-08-25T14:35:28.705Z,4.70
2023-08-25T14:37:55.538Z,4.55
2023-08-25T14:40:22.101Z,4.57
2023-08-25T14:42:51.739Z,4.82
2023-08-25T14:45:18.072Z,4.70
2023-08-25T14:47:44.596Z,4.80
2023-08-25T14:50:11.509Z,4.95
2023-08-25T14:52:37.841Z,4.57
2023-08-25T14:55:04.487Z,4.70
2023-08-25T14:57:30.766Z,4.68
2023-08-25T14:59:58.503Z,5.28
2023-08-25T15:02:24.896Z,4.88
2023-08-25T15:04:54.804Z,5.10
2023-08-25T15:07:22.351Z,5.25
2023-08-25T15:09:48.703Z,5.30
2023-08-25T15:12:15.042Z,4.93
2023-08-25T15:14:41.322Z,5.25
2023-08-25T15:17:07.712Z,5.57
2023-08-25T15:19:34.071Z,5.47
2023-08-25T15:22:00.451Z,5.43
2023-08-25T15:24:26.749Z,5.38
2023-08-25T15:26:53.155Z,5.65
2023-08-25T15:29:21.873Z,5.90
2023-08-25T15:31:49.809Z,5.82
2023-08-25T15:34:16.406Z,5.75
2023-08-25T15:36:42.765Z,5.68
2023-08-25T15:39:09.207Z,5.32
2023-08-25T15:41:37.993Z,6.13
2023-08-25T15:44:04.539Z,6.05
2023-08-25T15:46:30.946Z,6.05
2023-08-25T15:48:57.598Z,5.75
2023-08-25T15:51:23.980Z,5.90
2023-08-25T15:53:51.105Z,5.80
2023-08-25T15:56:17.497Z,6.93
2023-08-25T15:58:44.195Z,6.07
2023-08-25T16:01:11.558Z,6.03
2023-08-25T16:03:37.959Z,6.15
2023-08-25T16:06:05.041Z,5.88
2023-08-25T16:08:31.781Z,6.10
2023-08-25T16:11:04.866Z,6.25
2023-08-25T16:13:31.444Z,6.07
2023-08-25T16:15:58.076Z,6.10
2023-08-25T16:18:24.581Z,6.35
2023-08-25T16:20:51.255Z,5.70
2023-08-25T16:23:17.642Z,5.70
2023-08-25T16:25:44.404Z,6.00
2023-08-25T16:28:10.905Z,6.15
2023-08-25T16:30:37.432Z,5.88
2023-08-25T16:33:04.095Z,6.18
2023-08-25T16:35:30.480Z,6.13
2023-08-25T16:37:58.947Z,6.28
2023-08-25T16:40:27.758Z,6.13
2023-08-25T16:43:00.108Z,5.70
2023-08-25T16:45:27.926Z,6.05
2023-08-25T16:47:54.558Z,5.88
2023-08-25T16:50:20.968Z,5.60
2023-08-25T16:52:47.319Z,5.80
2023-08-25T16:55:13.684Z,5.60
2023-08-25T16:57:40.137Z,5.72
2023-08-25T17:00:06.804Z,5.97
2023-08-25T17:02:33.189Z,5.93
2023-08-25T17:05:00.147Z,5.65
2023-08-25T17:07:30.581Z,5.60
2023-08-25T17:09:58.748Z,5.85
2023-08-25T17:12:26.295Z,5.85
2023-08-25T17:14:53.347Z,6.07
2023-08-25T17:17:19.995Z,5.72
2023-08-25T17:19:48.499Z,6.03
2023-08-25T17:22:14.988Z,5.63
2023-08-25T17:24:41.741Z,5.75
2023-08-25T17:27:08.218Z,5.68
2023-08-25T17:29:35.205Z,5.43
2023-08-25T17:32:01.516Z,5.78
2023-08-25T17:34:28.214Z,5.20
2023-08-25T17:36:54.503Z,5.40
2023-08-25T17:39:22.177Z,5.47
2023-08-25T17:41:48.561Z,5.30
2023-08-25T17:44:14.897Z,4.97
2023-08-25T17:46:41.232Z,4.97
2023-08-25T17:49:08.637Z,5.20
2023-08-25T17:51:35.171Z,4.95
2023-08-25T17:54:01.534Z,5.43
2023-08-25T17:56:27.893Z,5.00
2023-08-25T17:58:54.222Z,5.80
2023-08-25T18:01:20.943Z,5.80
2023-08-25T18:03:47.438Z,4.78
2023-08-25T18:06:13.924Z,4.75
2023-08-25T18:08:41.948Z,4.82
2023-08-25T18:11:08.763Z,4.93
2023-08-25T18:13:36.121Z,5.45
2023-08-25T18:16:02.654Z,4.90
2023-08-25T18:18:29.042Z,4.78
2023-08-25T18:20:57.328Z,5.30
2023-08-25T18:23:25.160Z,4.57
2023-08-25T18:25:51.998Z,5.45
2023-08-25T18:28:18.468Z,5.60
2023-08-25T18:30:44.807Z,4.82
2023-08-25T18:33:11.367Z,5.47
2023-08-25T18:35:41.336Z,5.57
2023-08-25T18:38:07.942Z,5.55
2023-08-25T18:40:35.411Z,5.30
2023-08-25T18:43:01.970Z,5.63
2023-08-25T18:45:28.345Z,5.82
2023-08-25T18:47:54.750Z,5.72
2023-08-25T18:50:21.131Z,5.35
2023-08-25T18:52:47.511Z,5.43
2023-08-25T18:55:13.852Z,5.45
2023-08-25T18:57:40.210Z,19.60
2023-08-25T19:00:09.597Z,6.55
2023-08-25T19:02:36.452Z,6.03
2023-08-25T19:05:02.802Z,6.65
2023-08-25T19:07:29.323Z,6.63
2023-08-25T19:09:55.732Z,6.47
2023-08-25T19:12:22.044Z,6.03
2023-08-25T19:14:48.353Z,6.30
2023-08-25T19:17:14.916Z,6.80
2023-08-25T19:19:41.251Z,6.53
2023-08-25T19:22:09.286Z,6.55
2023-08-25T19:24:35.613Z,6.78
2023-08-25T19:27:02.657Z,6.05
2023-08-25T19:29:29.881Z,6.15
2023-08-25T19:31:57.660Z,6.28
2023-08-25T19:34:24.036Z,5.97
2023-08-25T19:36:50.708Z,6.30
2023-08-25T19:39:17.029Z,6.70
2023-08-25T19:41:43.348Z,6.75
2023-08-25T19:44:09.765Z,6.32
2023-08-25T19:46:36.317Z,6.22
2023-08-25T19:49:03.278Z,6.30
2023-08-25T19:51:29.640Z,6.10
2023-08-25T19:53:56.176Z,6.45
2023-08-25T19:56:22.542Z,6.60
2023-08-25T19:58:52.747Z,6.30
2023-08-25T20:01:19.476Z,6.80
2023-08-25T20:03:47.286Z,6.28
2023-08-25T20:06:14.266Z,6.40
2023-08-25T20:08:40.802Z,6.15
2023-08-25T20:11:07.902Z,6.82
2023-08-25T20:13:34.507Z,6.22
2023-08-25T20:16:01.603Z,6.43
2023-08-25T20:18:28.022Z,6.20
2023-08-25T20:20:54.403Z,6.88
2023-08-25T20:23:20.750Z,6.75
2023-08-25T20:25:47.371Z,6.30
2023-08-25T20:28:17.007Z,6.63
2023-08-25T20:30:46.594Z,6.47
2023-08-25T20:33:13.512Z,6.63
2023-08-25T20:35:40.566Z,6.30
2023-08-25T20:38:07.407Z,7.10
2023-08-25T20:40:34.349Z,6.40
2023-08-25T20:43:00.818Z,6.72
2023-08-25T20:45:27.166Z,6.90
2023-08-25T20:47:53.597Z,6.53
2023-08-25T20:50:20.115Z,6.53
2023-08-25T20:52:46.528Z,6.47
2023-08-25T20:55:12.889Z,6.63
2023-08-25T20:57:39.234Z,6.80
2023-08-25T21:00:06.079Z,6.78
2023-08-25T21:02:32.591Z,6.65
2023-08-25T21:04:58.968Z,7.43
2023-08-25T21:07:25.261Z,6.93
2023-08-25T21:09:51.618Z,7.10
2023-08-25T21:12:17.949Z,6.43
2023-08-25T21:14:44.321Z,7.05
2023-08-25T21:17:10.673Z,7.32
2023-08-25T21:19:37.008Z,7.28
2023-08-25T21:22:03.578Z,7.45
2023-08-25T21:24:29.923Z,7.90
2023-08-25T21:26:56.285Z,8.13
2023-08-25T21:29:22.594Z,9.57
2023-08-25T21:31:50.941Z,9.75
2023-08-25T21:34:17.331Z,8.43
2023-08-25T21:36:43.791Z,8.07
2023-08-25T21:39:10.127Z,6.75
2023-08-25T21:41:36.516Z,6.47
2023-08-25T21:44:03.505Z,6.05
2023-08-25T21:46:30.137Z,7.03
2023-08-25T21:48:57.182Z,6.40
2023-08-25T21:51:23.536Z,7.32
2023-08-25T21:53:49.905Z,7.07
2023-08-25T21:56:16.247Z,8.70
2023-08-25T21:58:42.738Z,7.85
2023-08-25T22:01:09.159Z,8.23
2023-08-25T22:03:35.704Z,6.45
2023-08-25T22:06:02.428Z,7.35
2023-08-25T22:08:28.893Z,7.35
2023-08-25T22:10:55.228Z,7.45
2023-08-25T22:13:21.822Z,6.82
2023-08-25T22:15:48.504Z,6.20
2023-08-25T22:18:14.927Z,8.40
2023-08-25T22:20:41.595Z,7.00
2023-08-25T22:23:08.072Z,6.15
2023-08-25T22:25:34.470Z,6.55
2023-08-25T22:28:00.854Z,5.97
2023-08-25T22:30:27.260Z,6.85
2023-08-25T22:35:22.862Z,7.10
2023-08-25T22:37:49.138Z,7.75
2023-08-25T22:40:15.487Z,8.30
2023-08-25T22:42:41.904Z,8.93
2023-08-25T22:45:08.421Z,9.50
2023-08-25T22:47:36.202Z,8.13
2023-08-25T22:50:02.616Z,7.60
2023-08-25T22:52:28.950Z,9.02
2023-08-25T22:54:55.927Z,8.63
2023-08-25T22:57:22.224Z,9.40
2023-08-25T22:59:48.569Z,9.38
2023-08-25T23:02:14.951Z,9.77
2023-08-25T23:04:41.269Z,9.88
2023-08-25T23:07:07.628Z,9.77
2023-08-25T23:09:33.940Z,10.35
2023-08-25T23:12:00.341Z,11.75
2023-08-25T23:14:26.740Z,10.52
2023-08-25T23:16:53.101Z,11.85
2023-08-25T23:19:19.530Z,11.75
2023-08-25T23:21:45.887Z,11.27
2023-08-25T23:24:12.278Z,11.60
2023-08-25T23:26:38.650Z,10.73
2023-08-25T23:29:05.007Z,11.93
2023-08-25T23:31:31.369Z,11.30
2023-08-25T23:33:57.742Z,11.30
2023-08-25T23:36:24.045Z,12.38
2023-08-25T23:38:50.343Z,12.23
2023-08-25T23:41:16.712Z,13.68
2023-08-25T23:43:43.009Z,14.68
2023-08-25T23:46:09.417Z,14.82
2023-08-25T23:48:35.827Z,13.52
2023-08-25T23:51:02.308Z,14.30
2023-08-25T23:53:28.988Z,15.55
2023-08-25T23:55:55.881Z,14.30
2023-08-25T23:58:22.238Z,16.13
